sensor_id;sensor_type;location;lat;lon;timestamp;pressure;altitude;pressure_sealevel;temperature;humidity
31299;BME280;17927;52.350;13.402;2022-12-05T00:01:36;101428.75;;;8.10;62.08
31299;BME280;17927;52.350;13.402;2022-12-05T00:04:05;101435.84;;;8.11;61.78
31299;BME280;17927;52.350;13.402;2022-12-05T00:06:39;101438.53;;;8.11;61.80
31299;BME280;17927;52.350;13.402;2022-12-05T00:09:06;101428.75;;;8.10;62.11
31299;BME280;17927;52.350;13.402;2022-12-05T00:11:38;101428.75;;;8.10;61.89
31299;BME280;17927;52.350;13.402;2022-12-05T00:14:05;101428.88;;;8.08;61.86
31299;BME280;17927;52.350;13.402;2022-12-05T00:16:32;101436.81;;;8.10;61.81
31299;BME280;17927;52.350;13.402;2022-12-05T00:18:59;101420.66;;;8.10;61.76
31299;BME280;17927;52.350;13.402;2022-12-05T00:21:26;101426.91;;;8.11;62.11
31299;BME280;17927;52.350;13.402;2022-12-05T00:23:53;101426.06;;;8.10;62.17
31299;BME280;17927;52.350;13.402;2022-12-05T00:26:19;101425.09;;;8.11;61.63
31299;BME280;17927;52.350;13.402;2022-12-05T00:28:45;101430.47;;;8.11;62.21
31299;BME280;17927;52.350;13.402;2022-12-05T00:31:13;101427.66;;;8.13;62.09
31299;BME280;17927;52.350;13.402;2022-12-05T00:33:41;101416.88;;;8.13;62.17
31299;BME280;17927;52.350;13.402;2022-12-05T00:36:12;101431.22;;;8.13;62.09
31299;BME280;17927;52.350;13.402;2022-12-05T00:38:38;101428.63;;;8.12;62.17
31299;BME280;17927;52.350;13.402;2022-12-05T00:41:25;101434.13;;;8.10;61.85
31299;BME280;17927;52.350;13.402;2022-12-05T00:43:51;101425.44;;;8.06;61.89
31299;BME280;17927;52.350;13.402;2022-12-05T00:46:24;101428.00;;;8.08;62.07
31299;BME280;17927;52.350;13.402;2022-12-05T00:48:51;101422.59;;;8.08;61.88
31299;BME280;17927;52.350;13.402;2022-12-05T00:51:41;101431.56;;;8.08;62.20
31299;BME280;17927;52.350;13.402;2022-12-05T00:54:09;101432.53;;;8.07;62.21
31299;BME280;17927;52.350;13.402;2022-12-05T00:56:35;101430.69;;;8.08;62.16
31299;BME280;17927;52.350;13.402;2022-12-05T00:59:03;101419.81;;;8.10;62.11
31299;BME280;17927;52.350;13.402;2022-12-05T01:01:34;101426.06;;;8.10;62.40
31299;BME280;17927;52.350;13.402;2022-12-05T01:04:03;101418.09;;;8.08;62.27
31299;BME280;17927;52.350;13.402;2022-12-05T01:06:29;101427.91;;;8.10;62.24
31299;BME280;17927;52.350;13.402;2022-12-05T01:08:55;101428.75;;;8.10;62.24
31299;BME280;17927;52.350;13.402;2022-12-05T01:11:21;101419.69;;;8.11;62.30
31299;BME280;17927;52.350;13.402;2022-12-05T01:13:47;101420.56;;;8.12;62.18
31299;BME280;17927;52.350;13.402;2022-12-05T01:16:15;101421.53;;;8.11;62.19
31299;BME280;17927;52.350;13.402;2022-12-05T01:18:40;101418.75;;;8.12;62.23
31299;BME280;17927;52.350;13.402;2022-12-05T01:21:06;101417.78;;;8.13;62.44
31299;BME280;17927;52.350;13.402;2022-12-05T01:23:31;101415.06;;;8.13;62.39
31299;BME280;17927;52.350;13.402;2022-12-05T01:25:56;101415.06;;;8.13;62.06
31299;BME280;17927;52.350;13.402;2022-12-05T01:28:22;101413.34;;;8.12;62.55
31299;BME280;17927;52.350;13.402;2022-12-05T01:30:50;101407.00;;;8.13;62.10
31299;BME280;17927;52.350;13.402;2022-12-05T01:33:16;101405.16;;;8.14;62.12
31299;BME280;17927;52.350;13.402;2022-12-05T01:35:44;101404.31;;;8.13;62.05
31299;BME280;17927;52.350;13.402;2022-12-05T01:38:11;101402.47;;;8.14;62.24
31299;BME280;17927;52.350;13.402;2022-12-05T01:40:37;101411.50;;;8.13;62.08
31299;BME280;17927;52.350;13.402;2022-12-05T01:43:03;101404.41;;;8.12;62.16
31299;BME280;17927;52.350;13.402;2022-12-05T01:47:57;101394.59;;;8.11;62.19
31299;BME280;17927;52.350;13.402;2022-12-05T01:50:22;101402.59;;;8.12;62.56
31299;BME280;17927;52.350;13.402;2022-12-05T01:52:48;101395.47;;;8.11;62.26
31299;BME280;17927;52.350;13.402;2022-12-05T01:55:15;101399.91;;;8.12;62.32
31299;BME280;17927;52.350;13.402;2022-12-05T01:57:41;101401.63;;;8.13;62.20
31299;BME280;17927;52.350;13.402;2022-12-05T02:00:13;101388.25;;;8.12;62.31
31299;BME280;17927;52.350;13.402;2022-12-05T02:02:40;101389.22;;;8.11;62.41
31299;BME280;17927;52.350;13.402;2022-12-05T02:05:11;101390.09;;;8.11;62.27
31299;BME280;17927;52.350;13.402;2022-12-05T02:07:40;101395.47;;;8.11;62.41
31299;BME280;17927;52.350;13.402;2022-12-05T02:10:06;101397.28;;;8.11;62.37
31299;BME280;17927;52.350;13.402;2022-12-05T02:12:32;101396.34;;;8.12;62.68
31299;BME280;17927;52.350;13.402;2022-12-05T02:15:39;101390.84;;;8.13;62.52
31299;BME280;17927;52.350;13.402;2022-12-05T02:18:15;101397.41;;;8.09;62.38
31299;BME280;17927;52.350;13.402;2022-12-05T02:21:15;101400.88;;;8.11;62.58
31299;BME280;17927;52.350;13.402;2022-12-05T02:26:34;101403.56;;;8.11;62.62
31299;BME280;17927;52.350;13.402;2022-12-05T02:29:36;101411.84;;;8.08;62.65
31299;BME280;17927;52.350;13.402;2022-12-05T02:32:10;101410.13;;;8.07;62.61
31299;BME280;17927;52.350;13.402;2022-12-05T02:34:56;101400.25;;;8.07;62.73
31299;BME280;17927;52.350;13.402;2022-12-05T02:37:28;101392.16;;;8.07;62.47
31299;BME280;17927;52.350;13.402;2022-12-05T02:40:00;101399.28;;;8.08;62.72
31299;BME280;17927;52.350;13.402;2022-12-05T02:42:32;101391.81;;;8.12;62.58
31299;BME280;17927;52.350;13.402;2022-12-05T02:45:03;101398.94;;;8.13;62.88
31299;BME280;17927;52.350;13.402;2022-12-05T02:47:33;101385.56;;;8.12;62.70
31299;BME280;17927;52.350;13.402;2022-12-05T02:50:00;101389.88;;;8.14;62.56
31299;BME280;17927;52.350;13.402;2022-12-05T02:52:26;101386.09;;;8.17;62.81
31299;BME280;17927;52.350;13.402;2022-12-05T02:54:53;101386.84;;;8.19;62.68
31299;BME280;17927;52.350;13.402;2022-12-05T02:57:20;101386.72;;;8.20;62.68
31299;BME280;17927;52.350;13.402;2022-12-05T02:59:46;101376.84;;;8.21;62.80
31299;BME280;17927;52.350;13.402;2022-12-05T03:02:26;101382.84;;;8.25;62.51
31299;BME280;17927;52.350;13.402;2022-12-05T03:04:52;101383.81;;;8.23;62.45
31299;BME280;17927;52.350;13.402;2022-12-05T03:07:19;101383.72;;;8.25;62.51
31299;BME280;17927;52.350;13.402;2022-12-05T03:09:58;101376.63;;;8.24;62.30
31299;BME280;17927;52.350;13.402;2022-12-05T03:12:28;101381.25;;;8.22;62.43
31299;BME280;17927;52.350;13.402;2022-12-05T03:15:05;101384.03;;;8.20;62.69
31299;BME280;17927;52.350;13.402;2022-12-05T03:17:38;101382.31;;;8.19;62.82
31299;BME280;17927;52.350;13.402;2022-12-05T03:20:23;101389.31;;;8.22;62.60
31299;BME280;17927;52.350;13.402;2022-12-05T03:23:02;101380.38;;;8.21;62.64
31299;BME280;17927;52.350;13.402;2022-12-05T03:25:34;101389.31;;;8.22;62.30
31299;BME280;17927;52.350;13.402;2022-12-05T03:28:19;101386.63;;;8.22;62.50
31299;BME280;17927;52.350;13.402;2022-12-05T03:30:51;101386.63;;;8.22;62.79
31299;BME280;17927;52.350;13.402;2022-12-05T03:33:21;101379.53;;;8.21;62.53
31299;BME280;17927;52.350;13.402;2022-12-05T03:36:10;101389.19;;;8.23;62.60
31299;BME280;17927;52.350;13.402;2022-12-05T03:38:44;101382.09;;;8.22;62.76
31299;BME280;17927;52.350;13.402;2022-12-05T03:41:13;101381.13;;;8.23;62.70
31299;BME280;17927;52.350;13.402;2022-12-05T03:43:56;101379.19;;;8.26;62.46
31299;BME280;17927;52.350;13.402;2022-12-05T03:46:24;101379.31;;;8.24;62.47
31299;BME280;17927;52.350;13.402;2022-12-05T03:49:06;101374.66;;;8.26;62.58
31299;BME280;17927;52.350;13.402;2022-12-05T03:51:52;101377.34;;;8.26;62.36
31299;BME280;17927;52.350;13.402;2022-12-05T03:54:34;101376.50;;;8.26;62.38
31299;BME280;17927;52.350;13.402;2022-12-05T03:57:07;101370.13;;;8.27;62.40
31299;BME280;17927;52.350;13.402;2022-12-05T03:59:49;101389.72;;;8.29;62.45
31299;BME280;17927;52.350;13.402;2022-12-05T04:02:22;101379.19;;;8.26;62.53
31299;BME280;17927;52.350;13.402;2022-12-05T04:04:53;101371.97;;;8.26;62.54
31299;BME280;17927;52.350;13.402;2022-12-05T04:07:20;101384.56;;;8.26;62.18
31299;BME280;17927;52.350;13.402;2022-12-05T04:09:54;101380.91;;;8.27;62.49
31299;BME280;17927;52.350;13.402;2022-12-05T04:12:25;101385.41;;;8.26;62.09
31299;BME280;17927;52.350;13.402;2022-12-05T04:15:05;101372.84;;;8.27;62.11
31299;BME280;17927;52.350;13.402;2022-12-05T04:17:47;101381.88;;;8.26;62.12
31299;BME280;17927;52.350;13.402;2022-12-05T04:20:17;101382.84;;;8.25;62.45
31299;BME280;17927;52.350;13.402;2022-12-05T04:23:03;101370.34;;;8.23;62.73
31299;BME280;17927;52.350;13.402;2022-12-05T04:28:28;101380.78;;;8.28;62.39
31299;BME280;17927;52.350;13.402;2022-12-05T04:31:17;101379.81;;;8.29;62.24
31299;BME280;17927;52.350;13.402;2022-12-05T04:33:56;101376.28;;;8.29;62.36
31299;BME280;17927;52.350;13.402;2022-12-05T04:36:31;101370.00;;;8.28;62.19
31299;BME280;17927;52.350;13.402;2022-12-05T04:39:07;101378.00;;;8.30;62.31
31299;BME280;17927;52.350;13.402;2022-12-05T04:41:40;101377.03;;;8.31;62.62
31299;BME280;17927;52.350;13.402;2022-12-05T04:44:10;101380.47;;;8.33;62.34
31299;BME280;17927;52.350;13.402;2022-12-05T04:46:41;101373.09;;;8.35;62.53
31299;BME280;17927;52.350;13.402;2022-12-05T04:49:11;101373.09;;;8.35;62.38
31299;BME280;17927;52.350;13.402;2022-12-05T04:51:37;101373.00;;;8.36;62.42
31299;BME280;17927;52.350;13.402;2022-12-05T04:54:11;101380.00;;;8.39;62.27
31299;BME280;17927;52.350;13.402;2022-12-05T04:56:40;101382.59;;;8.41;62.15
31299;BME280;17927;52.350;13.402;2022-12-05T04:59:06;101375.59;;;8.38;62.06
31299;BME280;17927;52.350;13.402;2022-12-05T05:01:48;101381.84;;;8.38;62.01
31299;BME280;17927;52.350;13.402;2022-12-05T05:04:21;101380.13;;;8.37;61.96
31299;BME280;17927;52.350;13.402;2022-12-05T05:06:46;101381.94;;;8.37;62.12
31299;BME280;17927;52.350;13.402;2022-12-05T05:09:12;101380.97;;;8.38;62.36
31299;BME280;17927;52.350;13.402;2022-12-05T05:11:37;101377.44;;;8.37;61.88
31299;BME280;17927;52.350;13.402;2022-12-05T05:14:03;101376.56;;;8.37;61.96
31299;BME280;17927;52.350;13.402;2022-12-05T05:16:35;101379.25;;;8.37;61.94
31299;BME280;17927;52.350;13.402;2022-12-05T05:19:01;101377.53;;;8.36;62.23
31299;BME280;17927;52.350;13.402;2022-12-05T05:23:52;101383.66;;;8.38;62.10
31299;BME280;17927;52.350;13.402;2022-12-05T05:26:18;101379.03;;;8.40;62.17
31299;BME280;17927;52.350;13.402;2022-12-05T05:28:44;101377.09;;;8.42;62.11
31299;BME280;17927;52.350;13.402;2022-12-05T05:31:10;101378.69;;;8.45;62.22
31299;BME280;17927;52.350;13.402;2022-12-05T05:33:35;101384.06;;;8.45;62.13
31299;BME280;17927;52.350;13.402;2022-12-05T05:36:13;101387.50;;;8.47;61.79
31299;BME280;17927;52.350;13.402;2022-12-05T05:38:42;101384.94;;;8.45;61.94
31299;BME280;17927;52.350;13.402;2022-12-05T05:41:13;101385.69;;;8.47;61.88
31299;BME280;17927;52.350;13.402;2022-12-05T05:43:39;101383.97;;;8.46;61.87
31299;BME280;17927;52.350;13.402;2022-12-05T05:46:05;101383.88;;;8.48;62.07
31299;BME280;17927;52.350;13.402;2022-12-05T05:48:30;101385.59;;;8.49;62.12
31299;BME280;17927;52.350;13.402;2022-12-05T05:50:58;101388.28;;;8.49;61.94
31299;BME280;17927;52.350;13.402;2022-12-05T05:53:23;101382.06;;;8.48;61.93
31299;BME280;17927;52.350;13.402;2022-12-05T05:55:48;101382.06;;;8.48;61.95
31299;BME280;17927;52.350;13.402;2022-12-05T05:58:14;101383.00;;;8.47;61.89
31299;BME280;17927;52.350;13.402;2022-12-05T06:00:39;101388.28;;;8.49;61.83
31299;BME280;17927;52.350;13.402;2022-12-05T06:03:04;101383.75;;;8.49;61.83
31299;BME280;17927;52.350;13.402;2022-12-05T06:05:30;101390.00;;;8.50;61.71
31299;BME280;17927;52.350;13.402;2022-12-05T06:07:58;101390.97;;;8.49;61.84
31299;BME280;17927;52.350;13.402;2022-12-05T06:10:23;101391.94;;;8.48;61.89
31299;BME280;17927;52.350;13.402;2022-12-05T06:12:48;101385.78;;;8.46;61.92
31299;BME280;17927;52.350;13.402;2022-12-05T06:15:14;101395.72;;;8.45;61.98
31299;BME280;17927;52.350;13.402;2022-12-05T06:17:39;101401.09;;;8.45;62.06
31299;BME280;17927;52.350;13.402;2022-12-05T06:20:05;101398.41;;;8.45;62.08
31299;BME280;17927;52.350;13.402;2022-12-05T06:22:31;101401.94;;;8.46;61.93
31299;BME280;17927;52.350;13.402;2022-12-05T06:24:57;101400.97;;;8.47;61.89
31299;BME280;17927;52.350;13.402;2022-12-05T06:27:22;101397.34;;;8.48;61.87
31299;BME280;17927;52.350;13.402;2022-12-05T06:29:48;101400.78;;;8.50;62.14
31299;BME280;17927;52.350;13.402;2022-12-05T06:32:13;101400.78;;;8.50;61.72
31299;BME280;17927;52.350;13.402;2022-12-05T06:34:38;101401.75;;;8.49;62.09
31299;BME280;17927;52.350;13.402;2022-12-05T06:37:03;101404.44;;;8.49;61.87
31299;BME280;17927;52.350;13.402;2022-12-05T06:39:29;101403.59;;;8.48;62.02
31299;BME280;17927;52.350;13.402;2022-12-05T06:41:54;101408.09;;;8.48;62.13
31299;BME280;17927;52.350;13.402;2022-12-05T06:44:19;101403.59;;;8.48;62.09
31299;BME280;17927;52.350;13.402;2022-12-05T06:46:46;101409.84;;;8.49;61.91
31299;BME280;17927;52.350;13.402;2022-12-05T06:49:11;101415.22;;;8.49;62.13
31299;BME280;17927;52.350;13.402;2022-12-05T06:51:36;101413.38;;;8.49;61.87
31299;BME280;17927;52.350;13.402;2022-12-05T06:54:02;101422.31;;;8.50;61.74
31299;BME280;17927;52.350;13.402;2022-12-05T06:56:27;101422.31;;;8.50;62.01
31299;BME280;17927;52.350;13.402;2022-12-05T06:58:53;101421.34;;;8.51;62.22
31299;BME280;17927;52.350;13.402;2022-12-05T07:01:22;101422.19;;;8.51;62.10
31299;BME280;17927;52.350;13.402;2022-12-05T07:04:04;101424.03;;;8.51;61.77
31299;BME280;17927;52.350;13.402;2022-12-05T07:06:31;101429.44;;;8.51;61.93
31299;BME280;17927;52.350;13.402;2022-12-05T07:08:57;101429.44;;;8.51;61.95
31299;BME280;17927;52.350;13.402;2022-12-05T07:11:24;101428.56;;;8.50;61.92
31299;BME280;17927;52.350;13.402;2022-12-05T07:13:49;101429.53;;;8.49;61.77
31299;BME280;17927;52.350;13.402;2022-12-05T07:16:14;101436.75;;;8.49;61.99
31299;BME280;17927;52.350;13.402;2022-12-05T07:18:39;101436.84;;;8.47;61.92
31299;BME280;17927;52.350;13.402;2022-12-05T07:21:07;101443.00;;;8.49;61.81
31299;BME280;17927;52.350;13.402;2022-12-05T07:23:33;101438.59;;;8.48;62.08
31299;BME280;17927;52.350;13.402;2022-12-05T07:25:58;101428.69;;;8.49;61.80
31299;BME280;17927;52.350;13.402;2022-12-05T07:28:28;101433.28;;;8.47;62.23
31299;BME280;17927;52.350;13.402;2022-12-05T07:31:19;101435.97;;;8.47;61.84
31299;BME280;17927;52.350;13.402;2022-12-05T07:33:46;101434.38;;;8.44;62.14
31299;BME280;17927;52.350;13.402;2022-12-05T07:36:18;101436.19;;;8.44;61.87
31299;BME280;17927;52.350;13.402;2022-12-05T07:38:44;101437.06;;;8.44;61.95
31299;BME280;17927;52.350;13.402;2022-12-05T07:41:17;101439.75;;;8.44;62.13
31299;BME280;17927;52.350;13.402;2022-12-05T07:43:43;101436.94;;;8.46;62.21
31299;BME280;17927;52.350;13.402;2022-12-05T07:46:09;101437.91;;;8.45;62.32
31299;BME280;17927;52.350;13.402;2022-12-05T07:48:37;101435.13;;;8.46;62.07
31299;BME280;17927;52.350;13.402;2022-12-05T07:51:04;101436.75;;;8.49;61.96
31299;BME280;17927;52.350;13.402;2022-12-05T07:53:31;101430.41;;;8.50;62.13
31299;BME280;17927;52.350;13.402;2022-12-05T07:56:03;101430.41;;;8.50;61.86
31299;BME280;17927;52.350;13.402;2022-12-05T07:58:30;101433.09;;;8.50;62.25
31299;BME280;17927;52.350;13.402;2022-12-05T08:00:56;101428.69;;;8.49;62.20
31299;BME280;17927;52.350;13.402;2022-12-05T08:03:22;101438.47;;;8.50;61.88
31299;BME280;17927;52.350;13.402;2022-12-05T08:05:47;101441.31;;;8.48;62.02
31299;BME280;17927;52.350;13.402;2022-12-05T08:08:13;101440.28;;;8.49;62.01
31299;BME280;17927;52.350;13.402;2022-12-05T08:10:38;101439.31;;;8.50;62.25
31299;BME280;17927;52.350;13.402;2022-12-05T08:13:03;101439.31;;;8.50;62.29
31299;BME280;17927;52.350;13.402;2022-12-05T08:15:28;101433.94;;;8.50;62.12
31299;BME280;17927;52.350;13.402;2022-12-05T08:17:54;101438.34;;;8.51;62.28
31299;BME280;17927;52.350;13.402;2022-12-05T08:20:19;101441.94;;;8.52;62.06
31299;BME280;17927;52.350;13.402;2022-12-05T08:22:44;101440.97;;;8.53;62.27
31299;BME280;17927;52.350;13.402;2022-12-05T08:25:09;101440.06;;;8.52;61.96
31299;BME280;17927;52.350;13.402;2022-12-05T08:27:35;101440.00;;;8.54;62.32
31299;BME280;17927;52.350;13.402;2022-12-05T08:30:00;101439.88;;;8.56;62.15
31299;BME280;17927;52.350;13.402;2022-12-05T08:32:25;101437.91;;;8.58;62.32
31299;BME280;17927;52.350;13.402;2022-12-05T08:34:51;101442.34;;;8.59;61.98
31299;BME280;17927;52.350;13.402;2022-12-05T08:37:16;101441.38;;;8.60;62.35
31299;BME280;17927;52.350;13.402;2022-12-05T08:39:42;101436.94;;;8.59;61.97
31299;BME280;17927;52.350;13.402;2022-12-05T08:42:07;101436.06;;;8.58;62.07
31299;BME280;17927;52.350;13.402;2022-12-05T08:44:32;101444.06;;;8.60;61.99
31299;BME280;17927;52.350;13.402;2022-12-05T08:46:57;101439.72;;;8.57;62.07
31299;BME280;17927;52.350;13.402;2022-12-05T08:49:23;101441.47;;;8.58;61.98
31299;BME280;17927;52.350;13.402;2022-12-05T08:51:48;101445.13;;;8.57;61.83
31299;BME280;17927;52.350;13.402;2022-12-05T08:54:13;101441.59;;;8.57;61.87
31299;BME280;17927;52.350;13.402;2022-12-05T08:56:39;101446.00;;;8.58;61.87
31299;BME280;17927;52.350;13.402;2022-12-05T08:59:05;101444.16;;;8.58;62.30
31299;BME280;17927;52.350;13.402;2022-12-05T09:01:31;101444.16;;;8.58;61.98
31299;BME280;17927;52.350;13.402;2022-12-05T09:03:58;101442.44;;;8.57;62.10
31299;BME280;17927;52.350;13.402;2022-12-05T09:06:28;101437.16;;;8.56;62.01
31299;BME280;17927;52.350;13.402;2022-12-05T09:08:56;101442.44;;;8.57;62.05
31299;BME280;17927;52.350;13.402;2022-12-05T09:11:25;101443.31;;;8.58;62.32
31299;BME280;17927;52.350;13.402;2022-12-05T09:13:51;101448.47;;;8.61;62.11
31299;BME280;17927;52.350;13.402;2022-12-05T09:16:23;101455.59;;;8.62;62.17
31299;BME280;17927;52.350;13.402;2022-12-05T09:18:49;101448.34;;;8.62;61.89
31299;BME280;17927;52.350;13.402;2022-12-05T09:21:17;101447.25;;;8.65;62.01
31299;BME280;17927;52.350;13.402;2022-12-05T09:23:43;101437.34;;;8.65;62.12
31299;BME280;17927;52.350;13.402;2022-12-05T09:26:11;101439.91;;;8.67;61.83
31299;BME280;17927;52.350;13.402;2022-12-05T09:28:38;101452.53;;;8.66;61.87
31299;BME280;17927;52.350;13.402;2022-12-05T09:31:07;101456.06;;;8.67;62.07
31299;BME280;17927;52.350;13.402;2022-12-05T09:33:35;101446.19;;;8.67;62.02
31299;BME280;17927;52.350;13.402;2022-12-05T09:36:22;101446.06;;;8.69;62.03
31299;BME280;17927;52.350;13.402;2022-12-05T09:38:49;101444.34;;;8.68;62.00
31299;BME280;17927;52.350;13.402;2022-12-05T09:47:32;101447.91;;;8.68;61.99
31299;BME280;17927;52.350;13.402;2022-12-05T09:50:14;101443.28;;;8.71;61.98
31299;BME280;17927;52.350;13.402;2022-12-05T09:53:04;101448.66;;;8.71;62.18
31299;BME280;17927;52.350;13.402;2022-12-05T09:58:17;101436.03;;;8.71;61.77
31299;BME280;17927;52.350;13.402;2022-12-05T10:00:44;101442.28;;;8.72;61.95
31299;BME280;17927;52.350;13.402;2022-12-05T10:03:32;101441.41;;;8.71;61.88
31299;BME280;17927;52.350;13.402;2022-12-05T10:06:20;101442.53;;;8.68;61.71
31299;BME280;17927;52.350;13.402;2022-12-05T10:08:57;101437.97;;;8.69;62.16
31299;BME280;17927;52.350;13.402;2022-12-05T10:11:40;101441.41;;;8.71;62.04
31299;BME280;17927;52.350;13.402;2022-12-05T10:14:44;101445.72;;;8.74;62.12
31299;BME280;17927;52.350;13.402;2022-12-05T10:17:22;101439.47;;;8.73;62.03
31299;BME280;17927;52.350;13.402;2022-12-05T10:19:48;101432.38;;;8.72;61.90
31299;BME280;17927;52.350;13.402;2022-12-05T10:22:27;101423.09;;;8.76;61.85
31299;BME280;17927;52.350;13.402;2022-12-05T10:24:58;101437.31;;;8.78;62.10
31299;BME280;17927;52.350;13.402;2022-12-05T10:27:35;101434.63;;;8.78;62.02
31299;BME280;17927;52.350;13.402;2022-12-05T10:30:20;101430.94;;;8.79;61.92
31299;BME280;17927;52.350;13.402;2022-12-05T10:33:02;101437.19;;;8.80;61.76
31299;BME280;17927;52.350;13.402;2022-12-05T10:35:37;101430.19;;;8.77;61.67
31299;BME280;17927;52.350;13.402;2022-12-05T10:38:06;101437.19;;;8.80;62.02
31299;BME280;17927;52.350;13.402;2022-12-05T10:40:38;101431.91;;;8.78;62.08
31299;BME280;17927;52.350;13.402;2022-12-05T10:43:06;101423.72;;;8.80;61.69
31299;BME280;17927;52.350;13.402;2022-12-05T10:45:36;101434.50;;;8.80;61.94
31299;BME280;17927;52.350;13.402;2022-12-05T10:48:08;101433.63;;;8.79;62.02
31299;BME280;17927;52.350;13.402;2022-12-05T10:50:36;101438.03;;;8.80;61.90
31299;BME280;17927;52.350;13.402;2022-12-05T10:53:03;101428.97;;;8.81;61.69
31299;BME280;17927;52.350;13.402;2022-12-05T10:55:39;101436.00;;;8.84;61.89
31299;BME280;17927;52.350;13.402;2022-12-05T10:58:13;101426.06;;;8.84;61.87
31299;BME280;17927;52.350;13.402;2022-12-05T11:00:41;101417.75;;;8.88;61.76
31299;BME280;17927;52.350;13.402;2022-12-05T11:03:26;101420.31;;;8.89;62.00
31299;BME280;17927;52.350;13.402;2022-12-05T11:05:55;101419.34;;;8.90;62.16
31299;BME280;17927;52.350;13.402;2022-12-05T11:08:22;101426.22;;;8.94;62.03
31299;BME280;17927;52.350;13.402;2022-12-05T11:10:48;101420.59;;;8.97;61.98
31299;BME280;17927;52.350;13.402;2022-12-05T11:13:16;101427.59;;;9.00;62.17
31299;BME280;17927;52.350;13.402;2022-12-05T11:15:47;101430.28;;;9.00;62.19
31299;BME280;17927;52.350;13.402;2022-12-05T11:18:21;101436.56;;;9.01;62.29
31299;BME280;17927;52.350;13.402;2022-12-05T11:20:51;101424.06;;;8.99;61.93
31299;BME280;17927;52.350;13.402;2022-12-05T11:23:27;101421.22;;;9.01;62.01
31299;BME280;17927;52.350;13.402;2022-12-05T11:25:54;101416.72;;;9.02;61.94
31299;BME280;17927;52.350;13.402;2022-12-05T11:30:59;101426.38;;;9.04;62.30
31299;BME280;17927;52.350;13.402;2022-12-05T11:33:27;101425.50;;;9.04;62.28
31299;BME280;17927;52.350;13.402;2022-12-05T11:35:54;101419.16;;;9.05;62.25
31299;BME280;17927;52.350;13.402;2022-12-05T11:38:25;101421.84;;;9.05;62.17
31299;BME280;17927;52.350;13.402;2022-12-05T11:41:30;101418.44;;;9.03;62.12
31299;BME280;17927;52.350;13.402;2022-12-05T11:46:48;101407.66;;;9.03;62.13
31299;BME280;17927;52.350;13.402;2022-12-05T11:52:30;101417.34;;;9.05;62.20
31299;BME280;17927;52.350;13.402;2022-12-05T11:57:58;101405.81;;;9.03;61.89
31299;BME280;17927;52.350;13.402;2022-12-05T12:01:01;101406.78;;;9.02;62.01
31299;BME280;17927;52.350;13.402;2022-12-05T12:06:28;101410.44;;;9.01;61.95
31299;BME280;17927;52.350;13.402;2022-12-05T12:09:24;101409.59;;;9.01;62.05
31299;BME280;17927;52.350;13.402;2022-12-05T12:12:16;101399.91;;;8.98;62.00
31299;BME280;17927;52.350;13.402;2022-12-05T12:15:18;101406.16;;;8.98;62.20
31299;BME280;17927;52.350;13.402;2022-12-05T12:17:55;101405.28;;;8.98;61.97
31299;BME280;17927;52.350;13.402;2022-12-05T12:26:14;101398.81;;;9.01;62.07
31299;BME280;17927;52.350;13.402;2022-12-05T12:32:07;101393.31;;;9.02;62.20
31299;BME280;17927;52.350;13.402;2022-12-05T12:35:02;101404.97;;;9.03;62.28
31299;BME280;17927;52.350;13.402;2022-12-05T12:40:38;101384.13;;;9.05;62.24
31299;BME280;17927;52.350;13.402;2022-12-05T12:46:11;101382.81;;;9.10;62.25
31299;BME280;17927;52.350;13.402;2022-12-05T12:51:12;101382.31;;;9.17;62.50
31299;BME280;17927;52.350;13.402;2022-12-05T12:53:47;101381.22;;;9.19;62.28
31299;BME280;17927;52.350;13.402;2022-12-05T12:56:22;101375.72;;;9.21;62.49
31299;BME280;17927;52.350;13.402;2022-12-05T12:59:02;101365.69;;;9.23;62.46
31299;BME280;17927;52.350;13.402;2022-12-05T13:01:42;101373.53;;;9.26;62.21
31299;BME280;17927;52.350;13.402;2022-12-05T13:04:16;101371.56;;;9.28;62.49
31299;BME280;17927;52.350;13.402;2022-12-05T13:06:57;101366.06;;;9.29;62.59
31299;BME280;17927;52.350;13.402;2022-12-05T13:09:48;101371.31;;;9.31;62.23
31299;BME280;17927;52.350;13.402;2022-12-05T13:12:16;101375.88;;;9.31;62.45
31299;BME280;17927;52.350;13.402;2022-12-05T13:14:51;101367.78;;;9.31;62.51
31299;BME280;17927;52.350;13.402;2022-12-05T13:17:19;101368.38;;;9.34;62.26
31299;BME280;17927;52.350;13.402;2022-12-05T13:19:51;101375.50;;;9.35;62.30
31299;BME280;17927;52.350;13.402;2022-12-05T13:22:19;101370.84;;;9.37;62.48
31299;BME280;17927;52.350;13.402;2022-12-05T13:24:46;101362.75;;;9.37;62.36
31299;BME280;17927;52.350;13.402;2022-12-05T13:27:17;101370.72;;;9.39;62.42
31299;BME280;17927;52.350;13.402;2022-12-05T13:32:29;101373.03;;;9.32;62.22
31299;BME280;17927;52.350;13.402;2022-12-05T13:35:19;101363.97;;;9.33;62.35
31299;BME280;17927;52.350;13.402;2022-12-05T13:38:05;101373.16;;;9.31;62.52
31299;BME280;17927;52.350;13.402;2022-12-05T13:40:58;101379.31;;;9.33;62.57
31299;BME280;17927;52.350;13.402;2022-12-05T13:43:49;101376.63;;;9.33;62.24
31299;BME280;17927;52.350;13.402;2022-12-05T13:46:21;101378.34;;;9.34;62.44
31299;BME280;17927;52.350;13.402;2022-12-05T13:48:58;101376.47;;;9.34;62.21
31299;BME280;17927;52.350;13.402;2022-12-05T13:51:31;101374.63;;;9.35;62.18
31299;BME280;17927;52.350;13.402;2022-12-05T13:54:02;101373.56;;;9.37;62.51
31299;BME280;17927;52.350;13.402;2022-12-05T13:56:48;101375.38;;;9.37;62.50
31299;BME280;17927;52.350;13.402;2022-12-05T14:07:51;101377.00;;;9.39;62.32
31299;BME280;17927;52.350;13.402;2022-12-05T14:15:42;101381.41;;;9.40;62.30
31299;BME280;17927;52.350;13.402;2022-12-05T14:18:40;101383.00;;;9.43;62.40
31299;BME280;17927;52.350;13.402;2022-12-05T14:21:16;101382.13;;;9.42;62.55